TimeCDT,TemperatureF,Dew PointF,Humidity,Sea Level PressureIn,VisibilityMPH,Wind Direction,Wind SpeedMPH,Gust SpeedMPH,PrecipitationIn,Events,Conditions,WindDirDegrees,DateUTC
12:52 AM,36.0,21.9,57,30.33,10.0,SSE,10.4,-,N/A,,Clear,150,2013-04-03 05:52:00
1:52 AM,34.0,21.9,61,30.34,10.0,SE,9.2,-,N/A,,Clear,140,2013-04-03 06:52:00
2:52 AM,32.0,21.9,66,30.35,10.0,SSE,9.2,-,N/A,,Clear,160,2013-04-03 07:52:00
3:52 AM,30.0,21.0,69,30.35,10.0,SE,6.9,-,N/A,,Clear,140,2013-04-03 08:52:00
4:52 AM,30.9,21.0,67,30.36,10.0,ESE,6.9,-,N/A,,Scattered Clouds,120,2013-04-03 09:52:00
5:52 AM,30.9,21.9,69,30.36,10.0,ESE,6.9,-,N/A,,Scattered Clouds,120,2013-04-03 10:52:00
6:52 AM,28.9,21.0,72,30.38,10.0,SE,6.9,-,N/A,,Mostly Cloudy,140,2013-04-03 11:52:00
7:52 AM,30.9,21.9,69,30.39,10.0,SE,9.2,-,N/A,,Overcast,140,2013-04-03 12:52:00
8:52 AM,34.0,23.0,64,30.38,10.0,SSE,9.2,-,N/A,,Overcast,160,2013-04-03 13:52:00
9:52 AM,37.0,23.0,57,30.38,10.0,SSE,11.5,-,N/A,,Overcast,160,2013-04-03 14:52:00
10:52 AM,39.9,21.9,49,30.38,10.0,South,13.8,-,N/A,,Overcast,170,2013-04-03 15:52:00
11:52 AM,44.1,21.9,42,30.38,10.0,South,11.5,-,N/A,,Overcast,170,2013-04-03 16:52:00
12:52 PM,46.9,21.9,37,30.35,10.0,South,13.8,-,N/A,,Mostly Cloudy,170,2013-04-03 17:52:00
1:52 PM,50.0,23.0,35,30.32,10.0,South,10.4,-,N/A,,Mostly Cloudy,170,2013-04-03 18:52:00
2:52 PM,53.1,23.0,31,30.30,10.0,South,9.2,16.1,N/A,,Mostly Cloudy,180,2013-04-03 19:52:00
3:52 PM,55.9,24.1,29,30.27,10.0,South,13.8,24.2,N/A,,Mostly Cloudy,180,2013-04-03 20:52:00
4:52 PM,55.9,24.1,29,30.25,10.0,South,15.0,-,N/A,,Overcast,190,2013-04-03 21:52:00
5:52 PM,54.0,24.1,31,30.24,10.0,South,16.1,-,N/A,,Overcast,180,2013-04-03 22:52:00
6:52 PM,53.1,24.1,32,30.24,10.0,South,12.7,-,N/A,,Overcast,170,2013-04-03 23:52:00
7:52 PM,51.1,24.1,35,30.24,10.0,South,11.5,-,N/A,,Mostly Cloudy,180,2013-04-04 00:52:00
8:52 PM,48.0,24.1,39,30.24,10.0,South,6.9,-,N/A,,Scattered Clouds,180,2013-04-04 01:52:00
9:52 PM,46.9,24.1,41,30.26,10.0,South,6.9,-,N/A,,Partly Cloudy,170,2013-04-04 02:52:00
10:52 PM,45.0,24.1,44,30.26,10.0,South,8.1,-,N/A,,Partly Cloudy,170,2013-04-04 03:52:00
11:52 PM,37.9,25.0,60,30.25,10.0,SSE,6.9,-,N/A,,Partly Cloudy,150,2013-04-04 04:52:00